Time;durP1;ratioP1;P1;durP2;ratioP2;P2;SDS_P1;SDS_P2;PMS_P1;PMS_P2;Temp;Humidity;BMP_temperature;BMP_pressure;BME280_temperature;BME280_humidity;BME280_pressure;Samples;Min_cycle;Max_cycle;Signal;HPM_P1;HPM_P2
2023/04/09 00:02:19;;;;;;;2.53;1.63;;;;;;;;;;4912793;29;20139;-60
2023/04/09 00:04:48;;;;;;;4.32;1.90;;;;;;;;;;4908539;29;20428;-58
2023/04/09 00:07:16;;;;;;;2.15;1.38;;;;;;;;;;4912849;29;20055;-57
2023/04/09 00:09:45;;;;;;;4.63;2.15;;;;;;;;;;4909460;29;20112;-59
2023/04/09 00:12:13;;;;;;;2.05;1.23;;;;;;;;;;4914606;29;20134;-58
2023/04/09 00:14:43;;;;;;;4.13;1.27;;;;;;;;;;4922591;29;20492;-57
2023/04/09 00:17:11;;;;;;;1.50;1.20;;;;;;;;;;4917693;29;20135;-58
2023/04/09 00:19:40;;;;;;;4.45;2.13;;;;;;;;;;4906293;29;20051;-57
2023/04/09 00:22:08;;;;;;;1.52;1.40;;;;;;;;;;4905591;29;20131;-57
2023/04/09 00:24:36;;;;;;;3.33;1.25;;;;;;;;;;4909040;29;20064;-58
2023/04/09 00:27:04;;;;;;;2.50;1.50;;;;;;;;;;4906768;29;20040;-59
2023/04/09 00:29:33;;;;;;;2.88;1.45;;;;;;;;;;4911315;29;20218;-58
2023/04/09 00:32:03;;;;;;;2.05;1.63;;;;;;;;;;4911384;29;20044;-58
2023/04/09 00:34:31;;;;;;;2.35;1.42;;;;;;;;;;4906449;29;20405;-62
2023/04/09 00:36:59;;;;;;;2.33;1.23;;;;;;;;;;4911439;29;20070;-58
2023/04/09 00:39:28;;;;;;;1.90;1.17;;;;;;;;;;4907329;29;20151;-59
2023/04/09 00:41:57;;;;;;;4.78;1.90;;;;;;;;;;4911173;29;20054;-58
2023/04/09 00:44:26;;;;;;;5.57;1.27;;;;;;;;;;4908941;29;20103;-62
2023/04/09 00:46:54;;;;;;;1.55;1.10;;;;;;;;;;4898970;29;20072;-58
2023/04/09 00:49:25;;;;;;;2.38;1.52;;;;;;;;;;4908598;29;20377;-57
2023/04/09 00:51:53;;;;;;;1.55;0.95;;;;;;;;;;4910809;29;20071;-58
2023/04/09 00:54:22;;;;;;;5.43;1.80;;;;;;;;;;4907628;29;20056;-58
2023/04/09 00:56:50;;;;;;;2.53;1.55;;;;;;;;;;4911704;29;20056;-57
2023/04/09 00:59:18;;;;;;;2.00;1.38;;;;;;;;;;4912005;29;20148;-58
2023/04/09 01:01:47;;;;;;;2.58;1.73;;;;;;;;;;4911899;29;20058;-57
2023/04/09 01:04:15;;;;;;;6.93;2.05;;;;;;;;;;4933808;23;20139;-59
2023/04/09 01:06:48;;;;;;;3.20;1.13;;;;;;;;;;4935050;29;20516;-59
2023/04/09 01:09:20;;;;;;;2.42;1.50;;;;;;;;;;4936180;29;20072;-59
2023/04/09 01:11:52;;;;;;;2.08;1.50;;;;;;;;;;4938815;29;20523;-59
2023/04/09 01:14:25;;;;;;;3.47;1.45;;;;;;;;;;4938674;29;20060;-59
2023/04/09 01:17:06;;;;;;;3.08;1.58;;;;;;;;;;4939494;29;20131;-59
2023/04/09 01:19:39;;;;;;;2.95;1.67;;;;;;;;;;4939810;29;20138;-60
2023/04/09 01:22:11;;;;;;;5.40;2.67;;;;;;;;;;4939524;29;20213;-60
2023/04/09 01:24:44;;;;;;;5.07;1.65;;;;;;;;;;4938535;29;20052;-60
2023/04/09 01:27:13;;;;;;;1.13;0.90;;;;;;;;;;4939047;29;20506;-59
2023/04/09 01:29:46;;;;;;;3.30;1.73;;;;;;;;;;4938797;29;20409;-59
2023/04/09 01:32:15;;;;;;;2.67;1.30;;;;;;;;;;4938846;29;20058;-59
2023/04/09 01:34:46;;;;;;;6.53;2.17;;;;;;;;;;4938288;29;20060;-60
2023/04/09 01:37:14;;;;;;;2.53;1.80;;;;;;;;;;4933078;29;20505;-59
2023/04/09 01:39:43;;;;;;;4.40;1.77;;;;;;;;;;4930309;29;20135;-60
2023/04/09 01:42:12;;;;;;;3.22;1.30;;;;;;;;;;4933025;29;20079;-60
2023/04/09 01:44:40;;;;;;;3.17;1.60;;;;;;;;;;4931812;29;20064;-59
2023/04/09 01:47:10;;;;;;;3.50;1.77;;;;;;;;;;4931787;28;20058;-60
2023/04/09 01:49:40;;;;;;;3.33;1.95;;;;;;;;;;4927752;29;20055;-60
2023/04/09 01:52:09;;;;;;;5.60;2.30;;;;;;;;;;4928562;29;20424;-60
2023/04/09 01:54:37;;;;;;;4.03;2.88;;;;;;;;;;4931706;29;20048;-59
2023/04/09 01:57:06;;;;;;;2.67;1.52;;;;;;;;;;4934143;28;20055;-59
2023/04/09 01:59:34;;;;;;;4.28;1.77;;;;;;;;;;4933823;29;20425;-59
2023/04/09 02:02:06;;;;;;;1.30;0.88;;;;;;;;;;4934596;29;20040;-59
2023/04/09 02:04:37;;;;;;;1.85;0.90;;;;;;;;;;4931861;29;20365;-59
2023/04/09 02:07:08;;;;;;;3.58;1.42;;;;;;;;;;4933780;28;20058;-60
2023/04/09 02:09:37;;;;;;;1.92;1.15;;;;;;;;;;4934082;29;20409;-60
2023/04/09 02:12:07;;;;;;;3.65;1.25;;;;;;;;;;4934014;29;20051;-59
2023/04/09 02:14:35;;;;;;;4.00;1.98;;;;;;;;;;4933796;29;20058;-60
2023/04/09 02:17:04;;;;;;;6.65;2.35;;;;;;;;;;4933553;28;20204;-60
2023/04/09 02:19:40;;;;;;;2.45;1.35;;;;;;;;;;4931543;29;20130;-60
2023/04/09 02:22:09;;;;;;;4.28;1.63;;;;;;;;;;4933323;29;20513;-59
2023/04/09 02:24:39;;;;;;;2.53;1.17;;;;;;;;;;4934197;29;20135;-59
2023/04/09 02:27:07;;;;;;;2.83;1.42;;;;;;;;;;4928405;28;20126;-60
2023/04/09 02:29:36;;;;;;;5.35;1.52;;;;;;;;;;4933805;29;20058;-59
2023/04/09 02:32:04;;;;;;;1.95;1.30;;;;;;;;;;4928458;29;20138;-59
2023/04/09 02:34:32;;;;;;;2.83;0.93;;;;;;;;;;4931836;29;20493;-59
2023/04/09 02:37:02;;;;;;;4.50;1.75;;;;;;;;;;4930842;28;20047;-59
2023/04/09 02:39:30;;;;;;;2.35;1.30;;;;;;;;;;4931021;29;20052;-60
2023/04/09 02:41:59;;;;;;;5.63;1.58;;;;;;;;;;4921770;29;20056;-60
2023/04/09 02:44:28;;;;;;;2.45;0.98;;;;;;;;;;4931894;29;20079;-59
2023/04/09 02:46:56;;;;;;;2.20;0.80;;;;;;;;;;4927496;29;20067;-59
2023/04/09 02:49:24;;;;;;;3.58;1.55;;;;;;;;;;4931281;29;20138;-60
2023/04/09 02:51:53;;;;;;;5.38;1.48;;;;;;;;;;4929938;29;20047;-59
2023/04/09 02:54:22;;;;;;;5.28;1.27;;;;;;;;;;4928900;29;20058;-60
2023/04/09 02:56:51;;;;;;;2.08;1.40;;;;;;;;;;4924580;28;20511;-59
2023/04/09 02:59:19;;;;;;;1.48;1.02;;;;;;;;;;4932552;29;20050;-58
2023/04/09 03:01:47;;;;;;;8.15;2.60;;;;;;;;;;4931017;29;20046;-59
2023/04/09 03:04:16;;;;;;;3.83;2.20;;;;;;;;;;4927938;29;20050;-60
2023/04/09 03:06:45;;;;;;;3.78;1.73;;;;;;;;;;4924889;28;20114;-60
2023/04/09 03:09:13;;;;;;;7.82;2.28;;;;;;;;;;4929822;29;20115;-59
2023/04/09 03:11:43;;;;;;;2.97;1.15;;;;;;;;;;4932108;29;20052;-60
2023/04/09 03:14:11;;;;;;;3.50;1.33;;;;;;;;;;4928355;29;20131;-59
2023/04/09 03:16:39;;;;;;;2.40;1.90;;;;;;;;;;4930602;28;20048;-59
2023/04/09 03:19:08;;;;;;;3.95;1.30;;;;;;;;;;4929476;29;20044;-60
2023/04/09 03:21:36;;;;;;;3.05;1.48;;;;;;;;;;4924891;29;20063;-60
2023/04/09 03:24:04;;;;;;;2.50;1.45;;;;;;;;;;4927255;29;20048;-59
2023/04/09 03:26:35;;;;;;;1.90;1.10;;;;;;;;;;4925902;28;20367;-60
2023/04/09 03:29:05;;;;;;;2.15;1.17;;;;;;;;;;4928196;29;20059;-59
2023/04/09 03:31:34;;;;;;;2.25;1.13;;;;;;;;;;4928415;29;20052;-59
2023/04/09 03:34:02;;;;;;;2.85;1.50;;;;;;;;;;4928863;29;20048;-60
2023/04/09 03:36:31;;;;;;;4.30;2.28;;;;;;;;;;4927248;28;20075;-59
2023/04/09 03:39:00;;;;;;;2.70;1.50;;;;;;;;;;4930403;29;20043;-59
2023/04/09 03:41:29;;;;;;;4.15;1.83;;;;;;;;;;4922494;29;20044;-59
2023/04/09 03:43:57;;;;;;;1.35;1.20;;;;;;;;;;4927409;29;20071;-60
2023/04/09 03:46:27;;;;;;;5.13;1.92;;;;;;;;;;4928684;28;20065;-59
2023/04/09 03:48:55;;;;;;;5.60;2.03;;;;;;;;;;4927728;29;20051;-60
2023/04/09 03:51:23;;;;;;;4.10;1.17;;;;;;;;;;4926712;29;20052;-59
2023/04/09 03:53:52;;;;;;;2.17;1.50;;;;;;;;;;4924784;29;20058;-59
2023/04/09 03:56:21;;;;;;;2.22;1.45;;;;;;;;;;4930781;29;20079;-59
2023/04/09 03:58:49;;;;;;;2.88;1.15;;;;;;;;;;4931820;29;20047;-59
2023/04/09 04:01:18;;;;;;;3.45;1.80;;;;;;;;;;4932614;29;20059;-59
2023/04/09 04:03:47;;;;;;;2.03;1.60;;;;;;;;;;4930183;29;20436;-59
2023/04/09 04:06:16;;;;;;;1.60;1.08;;;;;;;;;;4927631;28;20052;-60
2023/04/09 04:08:44;;;;;;;1.30;1.15;;;;;;;;;;4932000;29;20078;-59
2023/04/09 04:11:13;;;;;;;1.85;1.17;;;;;;;;;;4930346;29;20425;-60
2023/04/09 04:13:41;;;;;;;3.03;1.98;;;;;;;;;;4931842;29;20115;-59
2023/04/09 04:16:10;;;;;;;1.92;1.40;;;;;;;;;;4931567;28;20062;-60
2023/04/09 04:18:38;;;;;;;4.97;1.85;;;;;;;;;;4929964;29;20048;-59
2023/04/09 04:21:13;;;;;;;3.00;1.25;;;;;;;;;;4928626;29;20044;-59
2023/04/09 04:23:41;;;;;;;4.60;1.02;;;;;;;;;;4929080;29;20066;-59
2023/04/09 04:26:09;;;;;;;2.90;2.08;;;;;;;;;;4927368;29;20489;-59
2023/04/09 04:28:38;;;;;;;4.38;1.98;;;;;;;;;;4928422;29;20142;-59
2023/04/09 04:31:09;;;;;;;3.45;1.63;;;;;;;;;;4928465;29;21720;-59
2023/04/09 04:33:38;;;;;;;3.97;2.08;;;;;;;;;;4929479;29;20059;-59
2023/04/09 04:36:07;;;;;;;5.40;2.50;;;;;;;;;;4928456;29;20054;-59
2023/04/09 04:38:37;;;;;;;3.53;2.20;;;;;;;;;;4930386;29;20061;-59
2023/04/09 04:41:05;;;;;;;4.95;2.03;;;;;;;;;;4919738;29;20236;-60
2023/04/09 04:43:34;;;;;;;7.50;1.95;;;;;;;;;;4928773;29;20134;-59
2023/04/09 04:46:02;;;;;;;3.67;2.15;;;;;;;;;;4929761;28;20063;-59
2023/04/09 04:48:31;;;;;;;2.10;1.38;;;;;;;;;;4932205;29;20177;-59
2023/04/09 04:51:00;;;;;;;6.00;3.00;;;;;;;;;;4933954;29;20052;-59
2023/04/09 04:53:28;;;;;;;5.47;2.03;;;;;;;;;;4932084;29;20725;-60
2023/04/09 04:55:58;;;;;;;1.83;1.27;;;;;;;;;;4931959;28;20106;-59
2023/04/09 04:58:26;;;;;;;2.20;1.05;;;;;;;;;;4932251;29;20054;-59
2023/04/09 05:00:55;;;;;;;3.55;2.58;;;;;;;;;;4928335;29;20134;-60
2023/04/09 05:03:23;;;;;;;1.88;1.20;;;;;;;;;;4930837;29;20622;-60
2023/04/09 05:05:54;;;;;;;2.80;1.23;;;;;;;;;;4928448;28;20098;-59
2023/04/09 05:08:23;;;;;;;1.73;1.60;;;;;;;;;;4921957;29;20509;-59
2023/04/09 05:10:54;;;;;;;5.38;2.38;;;;;;;;;;4926160;29;20050;-60
2023/04/09 05:13:24;;;;;;;2.45;2.13;;;;;;;;;;4928713;29;20047;-59
2023/04/09 05:15:53;;;;;;;4.35;1.20;;;;;;;;;;4930549;29;20078;-59
2023/04/09 05:18:21;;;;;;;2.20;1.42;;;;;;;;;;4931598;29;20059;-59
2023/04/09 05:20:49;;;;;;;7.82;1.83;;;;;;;;;;4930711;29;20075;-59
2023/04/09 05:23:18;;;;;;;9.48;1.67;;;;;;;;;;4933919;29;20497;-59
2023/04/09 05:25:46;;;;;;;1.40;0.95;;;;;;;;;;4929284;28;20539;-59
2023/04/09 05:28:15;;;;;;;5.15;2.05;;;;;;;;;;4932703;29;20052;-60
2023/04/09 05:30:48;;;;;;;1.20;1.10;;;;;;;;;;4931106;29;20416;-60
2023/04/09 05:33:16;;;;;;;1.92;1.60;;;;;;;;;;4931901;29;20349;-60
2023/04/09 05:35:44;;;;;;;3.72;2.55;;;;;;;;;;4932029;28;20378;-60
2023/04/09 05:38:13;;;;;;;2.20;2.00;;;;;;;;;;4930173;29;20725;-60
2023/04/09 05:40:43;;;;;;;3.15;2.10;;;;;;;;;;4928454;29;20139;-59
2023/04/09 05:43:12;;;;;;;3.17;1.52;;;;;;;;;;4931984;29;20563;-59
2023/04/09 05:45:40;;;;;;;2.53;1.80;;;;;;;;;;4934184;28;20059;-59
2023/04/09 05:48:10;;;;;;;3.22;2.20;;;;;;;;;;4934465;29;20063;-60
2023/04/09 05:50:38;;;;;;;2.70;1.80;;;;;;;;;;4932501;29;20044;-59
2023/04/09 05:53:21;;;;;;;6.40;2.58;;;;;;;;;;4926162;29;20052;-59
2023/04/09 05:55:50;;;;;;;2.67;1.92;;;;;;;;;;4934387;28;20134;-59
2023/04/09 05:58:18;;;;;;;2.92;1.30;;;;;;;;;;4933898;29;20047;-59
2023/04/09 06:00:47;;;;;;;1.80;1.20;;;;;;;;;;4931708;29;20044;-59
2023/04/09 06:03:16;;;;;;;5.72;3.15;;;;;;;;;;4917799;29;20581;-59
2023/04/09 06:05:45;;;;;;;2.95;2.33;;;;;;;;;;4930827;28;20043;-59
2023/04/09 06:08:14;;;;;;;3.60;1.70;;;;;;;;;;4916650;29;20166;-60
2023/04/09 06:10:42;;;;;;;11.52;2.17;;;;;;;;;;4923940;29;20066;-60
2023/04/09 06:13:11;;;;;;;5.18;2.38;;;;;;;;;;4921371;29;20659;-59
2023/04/09 06:15:39;;;;;;;8.63;2.15;;;;;;;;;;4930776;28;20131;-59
2023/04/09 06:18:07;;;;;;;3.38;2.85;;;;;;;;;;4925118;29;20056;-60
2023/04/09 06:20:37;;;;;;;6.82;2.70;;;;;;;;;;4925953;29;20055;-59
2023/04/09 06:23:05;;;;;;;3.08;2.00;;;;;;;;;;4921824;29;20082;-60
2023/04/09 06:25:34;;;;;;;5.82;3.38;;;;;;;;;;4930087;28;20062;-59
2023/04/09 06:28:03;;;;;;;6.45;2.65;;;;;;;;;;4922653;29;20062;-60
2023/04/09 06:30:31;;;;;;;10.38;3.17;;;;;;;;;;4920394;29;20253;-59
2023/04/09 06:33:00;;;;;;;4.68;1.90;;;;;;;;;;4926624;29;20051;-59
2023/04/09 06:35:28;;;;;;;4.15;2.28;;;;;;;;;;4923891;29;20044;-59
2023/04/09 06:37:58;;;;;;;5.82;3.00;;;;;;;;;;4926587;28;20048;-60
2023/04/09 06:40:26;;;;;;;8.98;3.45;;;;;;;;;;4929692;29;20054;-59
2023/04/09 06:42:54;;;;;;;4.80;2.38;;;;;;;;;;4930803;29;20052;-59
2023/04/09 06:45:23;;;;;;;3.33;2.00;;;;;;;;;;4926235;29;20154;-60
2023/04/09 06:47:52;;;;;;;5.90;1.90;;;;;;;;;;4925942;28;20421;-59
2023/04/09 06:50:20;;;;;;;2.58;2.30;;;;;;;;;;4927298;29;20257;-59
2023/04/09 06:52:49;;;;;;;4.47;1.75;;;;;;;;;;4928273;29;20048;-59
2023/04/09 06:55:18;;;;;;;3.20;1.80;;;;;;;;;;4929571;29;20056;-60
2023/04/09 06:57:47;;;;;;;4.88;1.60;;;;;;;;;;4929547;29;20527;-59
2023/04/09 07:00:15;;;;;;;3.67;1.92;;;;;;;;;;4929436;29;20055;-60
2023/04/09 07:02:44;;;;;;;4.35;1.73;;;;;;;;;;4926456;29;20079;-59
2023/04/09 07:05:12;;;;;;;7.85;2.63;;;;;;;;;;4926426;29;20556;-60
2023/04/09 07:07:41;;;;;;;7.13;1.70;;;;;;;;;;4925813;29;20150;-60
2023/04/09 07:10:09;;;;;;;5.03;2.65;;;;;;;;;;4929994;29;20497;-59
2023/04/09 07:12:39;;;;;;;5.10;1.40;;;;;;;;;;4928816;29;20481;-60
2023/04/09 07:15:08;;;;;;;2.90;1.58;;;;;;;;;;4930014;29;20463;-60
2023/04/09 07:17:36;;;;;;;3.97;1.95;;;;;;;;;;4930921;28;20055;-60
2023/04/09 07:20:05;;;;;;;2.80;1.42;;;;;;;;;;4921072;29;20052;-60
2023/04/09 07:22:33;;;;;;;7.13;2.67;;;;;;;;;;4930341;29;20059;-60
2023/04/09 07:25:02;;;;;;;4.53;3.10;;;;;;;;;;4927036;29;20073;-60
2023/04/09 07:27:31;;;;;;;3.78;1.83;;;;;;;;;;4930774;28;20517;-60
2023/04/09 07:30:02;;;;;;;2.92;1.42;;;;;;;;;;4931119;29;20419;-60
2023/04/09 07:32:30;;;;;;;11.43;2.45;;;;;;;;;;4930461;29;20052;-60
2023/04/09 07:34:59;;;;;;;6.47;1.67;;;;;;;;;;4932449;29;20063;-60
2023/04/09 07:37:27;;;;;;;9.63;2.40;;;;;;;;;;4932459;28;20083;-60
2023/04/09 07:39:56;;;;;;;3.75;2.13;;;;;;;;;;4932331;29;20083;-60
2023/04/09 07:42:25;;;;;;;5.25;2.15;;;;;;;;;;4921448;29;20052;-60
2023/04/09 07:44:55;;;;;;;6.10;2.25;;;;;;;;;;4928505;29;20054;-60
2023/04/09 07:47:25;;;;;;;4.40;2.40;;;;;;;;;;4925144;28;20063;-60
2023/04/09 07:49:54;;;;;;;3.72;1.95;;;;;;;;;;4932494;29;20048;-61
2023/04/09 07:52:22;;;;;;;7.07;2.25;;;;;;;;;;4932392;29;20168;-60
2023/04/09 07:54:51;;;;;;;5.60;2.15;;;;;;;;;;4932241;29;20062;-60
2023/04/09 07:57:19;;;;;;;4.28;1.88;;;;;;;;;;4931764;28;20052;-60
2023/04/09 07:59:48;;;;;;;3.42;1.98;;;;;;;;;;4932305;29;20410;-60
2023/04/09 08:02:16;;;;;;;3.08;1.92;;;;;;;;;;4930772;29;20062;-60
2023/04/09 08:04:46;;;;;;;3.20;1.90;;;;;;;;;;4930264;29;20087;-60
2023/04/09 08:07:15;;;;;;;5.65;2.38;;;;;;;;;;4931536;29;20055;-60
2023/04/09 08:09:43;;;;;;;6.07;2.42;;;;;;;;;;4930988;29;20109;-60
2023/04/09 08:12:12;;;;;;;7.53;2.78;;;;;;;;;;4932026;29;20134;-60
2023/04/09 08:14:40;;;;;;;5.32;2.47;;;;;;;;;;4932195;29;20141;-60
2023/04/09 08:17:08;;;;;;;4.90;2.13;;;;;;;;;;4928614;28;20043;-60
2023/04/09 08:19:37;;;;;;;9.00;3.58;;;;;;;;;;4930988;29;20044;-60
2023/04/09 08:22:10;;;;;;;2.38;1.77;;;;;;;;;;4931830;29;20048;-60
2023/04/09 08:24:39;;;;;;;4.75;2.15;;;;;;;;;;4932110;29;20051;-60
2023/04/09 08:27:07;;;;;;;5.93;1.60;;;;;;;;;;4926127;29;20079;-60
2023/04/09 08:29:35;;;;;;;4.57;2.42;;;;;;;;;;4931857;29;20396;-60
2023/04/09 08:32:04;;;;;;;3.90;2.22;;;;;;;;;;4930915;29;20131;-60
2023/04/09 08:34:32;;;;;;;4.68;2.63;;;;;;;;;;4932081;29;20058;-60
2023/04/09 08:37:01;;;;;;;4.18;2.88;;;;;;;;;;4931163;28;20138;-60
2023/04/09 08:39:31;;;;;;;2.95;2.00;;;;;;;;;;4931325;29;20050;-60
2023/04/09 08:42:00;;;;;;;5.88;2.65;;;;;;;;;;4930243;29;20047;-60
2023/04/09 08:44:29;;;;;;;4.32;2.80;;;;;;;;;;4931623;29;20498;-60
2023/04/09 08:46:58;;;;;;;4.55;2.42;;;;;;;;;;4928615;28;20075;-60
2023/04/09 08:49:27;;;;;;;3.53;2.47;;;;;;;;;;4928698;29;20080;-60
2023/04/09 08:51:55;;;;;;;6.50;2.80;;;;;;;;;;4924287;29;20046;-60
2023/04/09 08:54:25;;;;;;;4.55;2.05;;;;;;;;;;4917135;29;20045;-61
2023/04/09 08:56:56;;;;;;;5.22;2.25;;;;;;;;;;4927973;28;20071;-60
2023/04/09 08:59:25;;;;;;;5.72;2.03;;;;;;;;;;4931464;29;20056;-60
2023/04/09 09:02:07;;;;;;;5.43;1.85;;;;;;;;;;4930079;29;20139;-60
2023/04/09 09:04:45;;;;;;;6.63;2.35;;;;;;;;;;4923739;29;20087;-60
2023/04/09 09:07:13;;;;;;;3.97;2.30;;;;;;;;;;4919583;29;20048;-60
2023/04/09 09:09:52;;;;;;;4.70;1.73;;;;;;;;;;4930135;29;20417;-60
2023/04/09 09:12:34;;;;;;;5.57;2.60;;;;;;;;;;4931660;29;20063;-60
2023/04/09 09:15:03;;;;;;;4.88;2.22;;;;;;;;;;4929721;29;20449;-60
2023/04/09 09:17:32;;;;;;;5.63;3.47;;;;;;;;;;4928960;29;20509;-59
2023/04/09 09:20:00;;;;;;;6.05;2.35;;;;;;;;;;4924481;29;20054;-59
2023/04/09 09:22:28;;;;;;;5.53;2.60;;;;;;;;;;4931146;29;20415;-60
2023/04/09 09:24:57;;;;;;;6.20;1.92;;;;;;;;;;4923359;29;20051;-60
2023/04/09 09:27:35;;;;;;;6.65;2.38;;;;;;;;;;4923065;29;20075;-60
2023/04/09 09:30:05;;;;;;;6.25;2.35;;;;;;;;;;4916034;29;20265;-60
2023/04/09 09:32:33;;;;;;;7.82;2.25;;;;;;;;;;4929098;29;20056;-60
2023/04/09 09:35:03;;;;;;;8.30;2.50;;;;;;;;;;4931017;29;20052;-59
2023/04/09 09:37:31;;;;;;;6.45;2.63;;;;;;;;;;4929447;29;20057;-59
2023/04/09 09:40:00;;;;;;;4.70;1.77;;;;;;;;;;4934954;29;20158;-60
2023/04/09 09:42:28;;;;;;;6.13;2.63;;;;;;;;;;4931027;29;20048;-60
2023/04/09 09:44:59;;;;;;;4.50;2.10;;;;;;;;;;4926591;29;20481;-60
2023/04/09 09:47:28;;;;;;;5.85;2.92;;;;;;;;;;4926163;28;20055;-59
2023/04/09 09:49:56;;;;;;;6.50;2.28;;;;;;;;;;4932319;29;20147;-59
2023/04/09 09:52:26;;;;;;;4.18;2.03;;;;;;;;;;4930281;29;20162;-59
2023/04/09 09:54:55;;;;;;;3.85;1.88;;;;;;;;;;4933049;29;20400;-60
2023/04/09 09:57:25;;;;;;;7.07;2.25;;;;;;;;;;4933762;28;20438;-60
2023/04/09 09:59:56;;;;;;;5.50;2.55;;;;;;;;;;4934350;29;20051;-59
2023/04/09 10:02:29;;;;;;;7.35;2.53;;;;;;;;;;4920265;29;20146;-59
2023/04/09 10:05:00;;;;;;;12.93;2.55;;;;;;;;;;4931645;29;20056;-60
2023/04/09 10:07:29;;;;;;;6.32;2.67;;;;;;;;;;4926365;29;20142;-60
2023/04/09 10:09:59;;;;;;;7.30;2.80;;;;;;;;;;4927955;29;20057;-60
2023/04/09 10:12:27;;;;;;;6.68;2.92;;;;;;;;;;4931255;29;20055;-59
2023/04/09 10:14:56;;;;;;;4.93;2.25;;;;;;;;;;4927157;29;20052;-58
2023/04/09 10:17:26;;;;;;;7.28;2.85;;;;;;;;;;4928447;28;20076;-60
2023/04/09 10:19:57;;;;;;;7.72;3.17;;;;;;;;;;4918869;29;20084;-60
2023/04/09 10:22:27;;;;;;;7.72;2.28;;;;;;;;;;4930164;29;20060;-60
2023/04/09 10:24:56;;;;;;;5.35;2.03;;;;;;;;;;4928449;29;20066;-60
2023/04/09 10:27:27;;;;;;;5.05;2.20;;;;;;;;;;4922826;28;20071;-60
2023/04/09 10:29:55;;;;;;;6.40;2.40;;;;;;;;;;4917739;29;20454;-60
2023/04/09 10:32:26;;;;;;;6.53;1.67;;;;;;;;;;4926857;29;20139;-60
2023/04/09 10:34:59;;;;;;;2.30;1.88;;;;;;;;;;4927240;29;20048;-60
2023/04/09 10:37:28;;;;;;;5.90;2.63;;;;;;;;;;4920556;29;20499;-60
2023/04/09 10:39:57;;;;;;;5.05;2.03;;;;;;;;;;4929932;29;20226;-60
2023/04/09 10:42:30;;;;;;;4.28;1.75;;;;;;;;;;4920890;29;20048;-60
2023/04/09 10:45:05;;;;;;;9.18;2.80;;;;;;;;;;4925325;29;20086;-60
2023/04/09 10:47:34;;;;;;;3.55;2.35;;;;;;;;;;4926670;28;20060;-60
2023/04/09 10:50:17;;;;;;;7.28;3.25;;;;;;;;;;4929764;29;20107;-58
2023/04/09 10:52:45;;;;;;;7.68;2.63;;;;;;;;;;4930356;29;20413;-60
2023/04/09 10:55:28;;;;;;;5.95;2.85;;;;;;;;;;4930419;29;20337;-59
2023/04/09 10:57:57;;;;;;;6.57;2.75;;;;;;;;;;4926284;29;20506;-59
2023/04/09 11:00:25;;;;;;;8.32;3.00;;;;;;;;;;4926737;29;20051;-59
2023/04/09 11:03:09;;;;;;;6.53;2.30;;;;;;;;;;4926560;29;20066;-59
2023/04/09 11:05:40;;;;;;;7.72;3.15;;;;;;;;;;4928641;28;20134;-60
2023/04/09 11:08:09;;;;;;;6.55;2.70;;;;;;;;;;4927690;29;20532;-60
2023/04/09 11:10:38;;;;;;;7.25;1.90;;;;;;;;;;4920611;29;20134;-60
2023/04/09 11:13:07;;;;;;;7.78;3.58;;;;;;;;;;4923109;29;20544;-59
2023/04/09 11:15:36;;;;;;;6.55;2.47;;;;;;;;;;4927559;28;20056;-60
2023/04/09 11:18:05;;;;;;;6.65;2.40;;;;;;;;;;4924441;29;20143;-60
2023/04/09 11:20:34;;;;;;;6.15;2.45;;;;;;;;;;4917256;29;20407;-60
2023/04/09 11:23:04;;;;;;;6.63;2.63;;;;;;;;;;4918049;29;20146;-60
2023/04/09 11:25:33;;;;;;;8.88;2.88;;;;;;;;;;4931524;28;20059;-61
2023/04/09 11:28:03;;;;;;;4.40;2.08;;;;;;;;;;4932675;29;20497;-60
2023/04/09 11:30:33;;;;;;;5.90;3.08;;;;;;;;;;4926042;29;20501;-60
2023/04/09 11:33:02;;;;;;;6.63;2.15;;;;;;;;;;4932322;29;20561;-60
2023/04/09 11:35:30;;;;;;;4.70;2.70;;;;;;;;;;4928000;28;20055;-60
2023/04/09 11:37:59;;;;;;;7.22;2.50;;;;;;;;;;4919169;29;20524;-60
2023/04/09 11:40:29;;;;;;;6.97;2.30;;;;;;;;;;4918970;29;20505;-61
2023/04/09 11:42:57;;;;;;;5.80;3.08;;;;;;;;;;4928355;29;20051;-60
2023/04/09 11:45:26;;;;;;;5.85;2.65;;;;;;;;;;4932179;29;20066;-59
2023/04/09 11:47:55;;;;;;;8.95;3.90;;;;;;;;;;4924584;29;20736;-60
2023/04/09 11:50:23;;;;;;;8.45;2.03;;;;;;;;;;4921185;29;20122;-60
2023/04/09 11:52:52;;;;;;;7.25;2.65;;;;;;;;;;4928320;29;20051;-60
2023/04/09 11:55:24;;;;;;;6.03;2.97;;;;;;;;;;4932004;29;20055;-59
2023/04/09 11:57:55;;;;;;;7.47;2.40;;;;;;;;;;4926169;29;20094;-60
2023/04/09 12:00:23;;;;;;;5.97;3.25;;;;;;;;;;4923838;29;20453;-60
2023/04/09 12:02:59;;;;;;;8.48;2.97;;;;;;;;;;4917353;29;20048;-60
2023/04/09 12:05:29;;;;;;;6.38;2.08;;;;;;;;;;4912452;29;20055;-61
2023/04/09 12:07:59;;;;;;;8.73;2.05;;;;;;;;;;4912171;29;20239;-60
2023/04/09 12:10:28;;;;;;;10.85;3.08;;;;;;;;;;4929089;29;20178;-60
2023/04/09 12:13:03;;;;;;;6.20;2.80;;;;;;;;;;4929242;29;20139;-60
2023/04/09 12:15:35;;;;;;;6.85;2.45;;;;;;;;;;4928488;28;20051;-60
2023/04/09 12:18:04;;;;;;;5.63;2.20;;;;;;;;;;4925202;29;20052;-60
2023/04/09 12:20:34;;;;;;;3.53;2.42;;;;;;;;;;4913998;29;20052;-60
2023/04/09 12:23:03;;;;;;;4.38;2.20;;;;;;;;;;4924105;29;20523;-60
2023/04/09 12:25:31;;;;;;;8.43;2.47;;;;;;;;;;4932552;28;20130;-60
2023/04/09 12:28:00;;;;;;;5.65;2.47;;;;;;;;;;4932943;29;20083;-59
2023/04/09 12:30:30;;;;;;;4.50;2.53;;;;;;;;;;4933235;29;20147;-60
2023/04/09 12:32:58;;;;;;;7.10;2.45;;;;;;;;;;4932605;29;20572;-60
2023/04/09 12:35:27;;;;;;;4.97;2.65;;;;;;;;;;4932654;29;20135;-60
2023/04/09 12:37:56;;;;;;;6.82;2.63;;;;;;;;;;4933108;29;20059;-60
2023/04/09 12:40:24;;;;;;;5.60;3.08;;;;;;;;;;4928592;29;20048;-60
2023/04/09 12:42:52;;;;;;;9.27;2.33;;;;;;;;;;4927813;29;20102;-60
2023/04/09 12:45:21;;;;;;;4.47;1.58;;;;;;;;;;4932237;29;20054;-60
2023/04/09 12:47:51;;;;;;;7.35;2.75;;;;;;;;;;4932487;28;20143;-60
2023/04/09 12:50:20;;;;;;;7.40;2.60;;;;;;;;;;4932325;29;20173;-60
2023/04/09 12:52:48;;;;;;;7.35;2.30;;;;;;;;;;4932367;29;20102;-60
2023/04/09 12:55:17;;;;;;;6.47;2.72;;;;;;;;;;4932225;29;20143;-60
2023/04/09 12:57:46;;;;;;;6.22;3.38;;;;;;;;;;4931443;28;20068;-60
2023/04/09 13:00:15;;;;;;;6.13;2.92;;;;;;;;;;4931815;29;20091;-60
2023/04/09 13:02:43;;;;;;;7.07;3.15;;;;;;;;;;4932076;29;20063;-59
2023/04/09 13:05:13;;;;;;;12.15;3.15;;;;;;;;;;4932193;29;20059;-60
2023/04/09 13:07:42;;;;;;;8.05;3.15;;;;;;;;;;4935275;28;20050;-60
2023/04/09 13:10:11;;;;;;;9.85;2.63;;;;;;;;;;4935870;29;20071;-60
2023/04/09 13:12:39;;;;;;;8.23;3.05;;;;;;;;;;4935238;29;20126;-60
2023/04/09 13:15:08;;;;;;;6.47;2.65;;;;;;;;;;4935464;29;20047;-60
2023/04/09 13:17:36;;;;;;;8.15;3.10;;;;;;;;;;4932706;28;20493;-60
2023/04/09 13:20:05;;;;;;;4.65;2.13;;;;;;;;;;4925073;29;20051;-60
2023/04/09 13:22:36;;;;;;;9.75;2.75;;;;;;;;;;4934697;29;20048;-60
2023/04/09 13:25:04;;;;;;;9.27;3.22;;;;;;;;;;4935148;29;20134;-60
2023/04/09 13:27:33;;;;;;;9.27;2.80;;;;;;;;;;4934350;28;20067;-60
2023/04/09 13:30:01;;;;;;;7.95;3.05;;;;;;;;;;4934984;29;20130;-60
2023/04/09 13:32:29;;;;;;;6.90;2.58;;;;;;;;;;4934556;29;20090;-60
2023/04/09 13:34:58;;;;;;;7.38;2.45;;;;;;;;;;4935206;29;20107;-60
2023/04/09 13:37:26;;;;;;;8.25;2.80;;;;;;;;;;4933941;28;20501;-60
2023/04/09 13:39:56;;;;;;;5.72;2.33;;;;;;;;;;4935126;29;20064;-60
2023/04/09 13:42:24;;;;;;;14.63;2.63;;;;;;;;;;4922351;29;20051;-60
2023/04/09 13:44:53;;;;;;;9.60;2.35;;;;;;;;;;4934138;29;20126;-60
2023/04/09 13:47:22;;;;;;;17.25;2.95;;;;;;;;;;4933429;28;20048;-60
2023/04/09 13:49:51;;;;;;;5.80;2.13;;;;;;;;;;4933974;29;20058;-60
2023/04/09 13:52:20;;;;;;;12.70;2.90;;;;;;;;;;4934129;29;20059;-60
2023/04/09 13:54:48;;;;;;;5.85;2.47;;;;;;;;;;4933336;29;20442;-60
2023/04/09 13:57:18;;;;;;;6.20;2.35;;;;;;;;;;4933423;28;20056;-60
2023/04/09 13:59:46;;;;;;;5.50;2.15;;;;;;;;;;4933954;29;20055;-60
2023/04/09 14:02:16;;;;;;;5.13;2.25;;;;;;;;;;4933088;29;20308;-60
2023/04/09 14:04:45;;;;;;;5.18;1.90;;;;;;;;;;4932635;29;20146;-60
2023/04/09 14:07:13;;;;;;;5.60;2.00;;;;;;;;;;4932238;29;20155;-60
2023/04/09 14:09:42;;;;;;;4.18;2.17;;;;;;;;;;4932801;29;20130;-60
2023/04/09 14:12:11;;;;;;;7.20;2.38;;;;;;;;;;4933026;29;20086;-60
2023/04/09 14:14:41;;;;;;;7.00;2.28;;;;;;;;;;4932537;29;20111;-60
2023/04/09 14:17:09;;;;;;;6.82;2.42;;;;;;;;;;4931588;28;20118;-60
2023/04/09 14:19:38;;;;;;;5.47;1.60;;;;;;;;;;4920320;29;20048;-60
2023/04/09 14:22:07;;;;;;;4.60;1.88;;;;;;;;;;4933496;29;20050;-60
2023/04/09 14:24:38;;;;;;;5.95;1.63;;;;;;;;;;4933103;29;20047;-60
2023/04/09 14:27:07;;;;;;;4.60;2.00;;;;;;;;;;4933021;28;20130;-60
2023/04/09 14:29:36;;;;;;;3.50;1.55;;;;;;;;;;4933084;29;20056;-60
2023/04/09 14:32:06;;;;;;;3.60;1.65;;;;;;;;;;4933456;29;20058;-60
2023/04/09 14:34:35;;;;;;;8.38;2.38;;;;;;;;;;4932825;29;20067;-60
2023/04/09 14:37:03;;;;;;;5.88;2.53;;;;;;;;;;4932439;28;20501;-59
2023/04/09 14:39:32;;;;;;;5.65;2.38;;;;;;;;;;4932874;29;20445;-60
2023/04/09 14:42:00;;;;;;;6.80;2.75;;;;;;;;;;4931684;29;20048;-60
2023/04/09 14:44:30;;;;;;;5.60;2.25;;;;;;;;;;4932777;29;20166;-60
2023/04/09 14:46:58;;;;;;;9.13;2.65;;;;;;;;;;4932501;28;20389;-60
2023/04/09 14:49:28;;;;;;;3.35;1.85;;;;;;;;;;4932792;29;20047;-60
2023/04/09 14:51:57;;;;;;;7.20;2.33;;;;;;;;;;4932736;29;20252;-60
2023/04/09 14:54:25;;;;;;;4.68;1.95;;;;;;;;;;4932623;29;20432;-60
2023/04/09 14:56:54;;;;;;;3.45;2.65;;;;;;;;;;4932121;28;20048;-60